Time;durP1;ratioP1;P1;durP2;ratioP2;P2;SDS_P1;SDS_P2;PMS_P1;PMS_P2;Temp;Humidity;BMP_temperature;BMP_pressure;BME280_temperature;BME280_humidity;BME280_pressure;Samples;Min_cycle;Max_cycle;Signal;HPM_P1;HPM_P2
2022/10/13 00:02:13;;;;;;;;;;;;;;;23.14;46.34;94754.44;5070476;28;7308;-60
2022/10/13 00:04:39;;;;;;;;;;;;;;;23.11;46.39;94749.94;5094103;28;7258;-61
2022/10/13 00:07:26;;;;;;;;;;;;;;;23.14;46.46;94759.94;5079289;28;7888;-61
2022/10/13 00:10:23;;;;;;;;;;;;;;;23.14;46.31;94768.16;5093930;28;8988;-61
2022/10/13 00:12:50;;;;;;;;;;;;;;;23.13;45.93;94766.69;5011362;28;7281;-61
2022/10/13 00:15:46;;;;;;;;;;;;;;;23.12;46.63;94762.41;5000278;28;6985;-60
2022/10/13 00:18:16;;;;;;;;;;;;;;;23.12;46.47;94767.13;4975630;28;8760;-61
2022/10/13 00:20:51;;;;;;;;;;;;;;;23.12;46.35;94769.88;4992186;28;9394;-61
2022/10/13 00:23:19;;;;;;;;;;;;;;;23.12;46.69;94767.13;4975599;28;7043;-60
2022/10/13 00:25:56;;;;;;;;;;;;;;;23.11;46.59;94763.66;4971115;28;9170;-61
2022/10/13 00:28:39;;;;;;;;;;;;;;;23.12;47.06;94773.38;4974525;28;9080;-61
2022/10/13 00:31:18;;;;;;;;;;;;;;;23.12;46.35;94778.13;4974923;28;9108;-61
2022/10/13 00:33:46;;;;;;;;;;;;;;;23.10;46.71;94781.34;4970722;28;7225;-61
2022/10/13 00:36:28;;;;;;;;;;;;;;;23.11;46.58;94780.13;4989606;28;9139;-61
2022/10/13 00:38:56;;;;;;;;;;;;;;;23.11;46.62;94785.63;4991748;28;7501;-61
2022/10/13 00:41:31;;;;;;;;;;;;;;;23.10;46.44;94788.81;4991610;28;7267;-61
2022/10/13 00:44:24;;;;;;;;;;;;;;;23.10;46.30;94795.06;4975329;28;6967;-61
2022/10/13 00:46:54;;;;;;;;;;;;;;;23.10;46.31;94797.81;4968116;28;7520;-61
2022/10/13 00:49:21;;;;;;;;;;;;;;;23.10;46.52;94808.78;5011296;28;7662;-61
2022/10/13 00:52:02;;;;;;;;;;;;;;;23.09;46.08;94796.31;5030856;28;7139;-61
2022/10/13 00:54:28;;;;;;;;;;;;;;;23.09;46.18;94795.56;5039434;28;7220;-61
2022/10/13 00:57:05;;;;;;;;;;;;;;;23.09;46.13;94804.56;5066327;28;7357;-61
2022/10/13 00:59:33;;;;;;;;;;;;;;;23.08;46.36;94788.56;5067541;28;8653;-61
2022/10/13 01:02:01;;;;;;;;;;;;;;;23.09;46.54;94787.34;5055920;28;7200;-61
2022/10/13 01:04:33;;;;;;;;;;;;;;;23.09;46.86;94790.84;5091522;28;9092;-61
2022/10/13 01:07:01;;;;;;;;;;;;;;;23.07;46.39;94785.09;5081750;28;7324;-60
2022/10/13 01:09:38;;;;;;;;;;;;;;;23.08;46.66;94786.56;5081522;28;6987;-61
2022/10/13 01:12:44;;;;;;;;;;;;;;;23.08;46.70;94783.06;5074526;28;6993;-61
2022/10/13 01:15:14;;;;;;;;;;;;;;;23.07;46.42;94774.13;5074294;28;7683;-61
2022/10/13 01:18:17;;;;;;;;;;;;;;;23.07;46.71;94770.59;5072021;28;7369;-60
2022/10/13 01:21:05;;;;;;;;;;;;;;;23.06;46.34;94764.38;5076945;28;7592;-60
2022/10/13 01:24:04;;;;;;;;;;;;;;;23.05;46.37;94762.84;5088615;28;7479;-61
2022/10/13 01:26:42;;;;;;;;;;;;;;;23.05;46.61;94762.84;5086322;28;7144;-61
2022/10/13 01:29:19;;;;;;;;;;;;;;;23.04;46.72;94761.34;5074040;28;9100;-61
2022/10/13 01:32:12;;;;;;;;;;;;;;;23.05;46.48;94762.13;5067628;28;6993;-61
2022/10/13 01:35:09;;;;;;;;;;;;;;;23.05;46.77;94762.84;5071060;28;8972;-61
2022/10/13 01:37:49;;;;;;;;;;;;;;;23.04;46.28;94753.13;5084484;28;7068;-61
2022/10/13 01:40:29;;;;;;;;;;;;;;;23.04;46.56;94744.88;5092089;28;7283;-61
2022/10/13 01:43:28;;;;;;;;;;;;;;;23.05;46.34;94743.63;5075122;28;9362;-61
2022/10/13 01:46:35;;;;;;;;;;;;;;;23.04;46.55;94739.41;5009514;28;7060;-61
2022/10/13 01:49:36;;;;;;;;;;;;;;;23.03;46.53;94737.88;5030495;28;7221;-61
2022/10/13 01:52:32;;;;;;;;;;;;;;;23.05;46.70;94742.91;4978674;28;8085;-61
2022/10/13 01:55:08;;;;;;;;;;;;;;;23.03;46.53;94737.16;4986384;28;7254;-60
2022/10/13 01:57:40;;;;;;;;;;;;;;;23.02;46.68;94741.88;4994778;28;7151;-61
2022/10/13 02:00:08;;;;;;;;;;;;;;;23.02;46.80;94747.38;4984136;28;9102;-61
2022/10/13 02:03:14;;;;;;;;;;;;;;;23.02;46.83;94744.63;4994602;28;7004;-61
2022/10/13 02:05:48;;;;;;;;;;;;;;;23.01;46.12;94748.59;4910661;29;7246;-61
2022/10/13 02:08:39;;;;;;;;;;;;;;;23.03;46.62;94739.91;4934411;29;9136;-61
2022/10/13 02:11:25;;;;;;;;;;;;;;;23.01;46.61;94745.84;4935486;29;7274;-61
2022/10/13 02:14:17;;;;;;;;;;;;;;;23.00;46.38;94749.09;4933769;29;9510;-61
2022/10/13 02:16:46;;;;;;;;;;;;;;;22.97;46.82;94742.56;4925483;29;8688;-61
2022/10/13 02:19:17;;;;;;;;;;;;;;;22.98;46.62;94740.59;4917697;29;7601;-60
2022/10/13 02:21:46;;;;;;;;;;;;;;;22.99;46.65;94748.31;4937167;28;7347;-59
2022/10/13 02:24:13;;;;;;;;;;;;;;;22.99;46.52;94742.84;4957857;28;8108;-60
2022/10/13 02:26:41;;;;;;;;;;;;;;;23.00;46.37;94749.84;4957446;28;9880;-60
2022/10/13 02:29:14;;;;;;;;;;;;;;;22.99;46.72;94751.06;4979324;28;6978;-60
2022/10/13 02:31:43;;;;;;;;;;;;;;;22.98;46.67;94751.56;4991631;28;9223;-60
2022/10/13 02:34:10;;;;;;;;;;;;;;;22.98;46.46;94740.59;4992255;28;7247;-60
2022/10/13 02:36:39;;;;;;;;;;;;;;;22.99;46.64;94737.34;5045191;28;8729;-60
2022/10/13 02:39:08;;;;;;;;;;;;;;;22.99;46.72;94736.59;5080072;28;9074;-60
2022/10/13 02:41:36;;;;;;;;;;;;;;;22.98;46.99;94746.06;5079891;28;9430;-60
2022/10/13 02:44:05;;;;;;;;;;;;;;;22.97;46.69;94739.84;5069273;28;6999;-60
2022/10/13 02:46:35;;;;;;;;;;;;;;;22.93;46.73;94741.28;5086144;28;7065;-61
2022/10/13 02:49:06;;;;;;;;;;;;;;;22.96;46.46;94743.06;5092937;28;7300;-59
2022/10/13 02:51:38;;;;;;;;;;;;;;;22.94;46.77;94745.53;5077120;28;10142;-60
2022/10/13 02:54:06;;;;;;;;;;;;;;;22.92;46.70;94742.53;5092583;28;9475;-60
2022/10/13 02:56:33;;;;;;;;;;;;;;;22.95;46.77;94745.06;5074110;28;7143;-60
2022/10/13 02:59:02;;;;;;;;;;;;;;;22.96;46.87;94743.81;5076527;28;7200;-61
2022/10/13 03:01:30;;;;;;;;;;;;;;;22.96;46.54;94752.06;5073524;28;7163;-61
2022/10/13 03:03:56;;;;;;;;;;;;;;;22.96;46.54;94754.03;5091432;28;7210;-60
2022/10/13 03:06:22;;;;;;;;;;;;;;;22.92;46.75;94743.28;5094740;28;7199;-60
2022/10/13 03:08:48;;;;;;;;;;;;;;;22.93;46.18;94736.56;5083523;28;9048;-60
2022/10/13 03:11:20;;;;;;;;;;;;;;;22.93;46.66;94738.53;5093771;28;9280;-61
2022/10/13 03:13:49;;;;;;;;;;;;;;;22.93;47.22;94744.03;5077061;28;7932;-61
2022/10/13 03:16:25;;;;;;;;;;;;;;;22.93;46.81;94744.78;5085741;28;7041;-61
2022/10/13 03:19:00;;;;;;;;;;;;;;;22.90;46.35;94743.00;5076988;28;7579;-60
2022/10/13 03:21:32;;;;;;;;;;;;;;;22.93;46.57;94744.78;5073569;28;7608;-61
2022/10/13 03:23:58;;;;;;;;;;;;;;;22.91;46.80;94747.25;5082705;28;7103;-60
2022/10/13 03:26:32;;;;;;;;;;;;;;;22.92;46.70;94754.25;5056962;28;7241;-60
2022/10/13 03:28:59;;;;;;;;;;;;;;;22.92;46.75;94751.50;5084838;28;7728;-61
2022/10/13 03:31:31;;;;;;;;;;;;;;;22.92;46.58;94748.75;5094363;28;7943;-60
2022/10/13 03:34:07;;;;;;;;;;;;;;;22.90;46.83;94743.00;5067195;28;7804;-60
2022/10/13 03:36:33;;;;;;;;;;;;;;;22.92;46.44;94754.25;5084060;28;6995;-60
2022/10/13 03:38:59;;;;;;;;;;;;;;;22.91;46.89;94755.50;5093774;28;8851;-60
2022/10/13 03:41:25;;;;;;;;;;;;;;;22.90;46.46;94756.72;5075269;28;8968;-61
2022/10/13 03:43:53;;;;;;;;;;;;;;;22.89;46.65;94752.47;5060133;28;7059;-61
2022/10/13 03:46:32;;;;;;;;;;;;;;;22.90;46.41;94751.22;5073489;28;7322;-60
2022/10/13 03:49:00;;;;;;;;;;;;;;;22.89;47.01;94748.97;5091405;28;8930;-61
2022/10/13 03:51:26;;;;;;;;;;;;;;;22.90;46.13;94753.25;5080810;28;9056;-60
2022/10/13 03:53:56;;;;;;;;;;;;;;;22.89;47.11;94746.25;5075471;28;10348;-61
2022/10/13 03:56:27;;;;;;;;;;;;;;;22.88;46.77;94742.72;5072407;28;7155;-61
2022/10/13 03:58:55;;;;;;;;;;;;;;;22.89;46.70;94748.97;5071923;28;9023;-61
2022/10/13 04:01:25;;;;;;;;;;;;;;;22.89;46.88;94738.00;5079145;28;9483;-60
2022/10/13 04:03:54;;;;;;;;;;;;;;;22.88;46.74;94736.53;5071551;28;7279;-60
2022/10/13 04:06:25;;;;;;;;;;;;;;;22.88;46.95;94733.78;5072151;28;9338;-60
2022/10/13 04:08:54;;;;;;;;;;;;;;;22.88;46.71;94731.03;5091115;28;9365;-61
2022/10/13 04:11:23;;;;;;;;;;;;;;;22.87;46.60;94733.00;5072638;28;8695;-61
2022/10/13 04:13:52;;;;;;;;;;;;;;;22.87;46.83;94737.75;5041145;28;9326;-61
2022/10/13 04:16:55;;;;;;;;;;;;;;;22.87;46.89;94741.25;5073523;28;10214;-60
2022/10/13 04:19:24;;;;;;;;;;;;;;;22.87;46.74;94735.75;4994356;28;7170;-60
2022/10/13 04:22:26;;;;;;;;;;;;;;;22.87;46.54;94735.75;4994178;28;7228;-60
2022/10/13 04:24:53;;;;;;;;;;;;;;;22.86;46.68;94733.50;4916131;29;7216;-60
2022/10/13 04:27:22;;;;;;;;;;;;;;;22.84;46.57;94739.47;4914643;29;7077;-60
2022/10/13 04:29:51;;;;;;;;;;;;;;;22.87;46.65;94735.00;4915890;29;7068;-60
2022/10/13 04:32:19;;;;;;;;;;;;;;;22.85;46.68;94735.50;4914523;29;7714;-60
2022/10/13 04:34:50;;;;;;;;;;;;;;;22.83;46.23;94735.22;4913262;29;10149;-60
2022/10/13 04:37:15;;;;;;;;;;;;;;;22.82;46.64;94733.72;4916916;29;9356;-60
2022/10/13 04:39:47;;;;;;;;;;;;;;;22.82;46.64;94725.47;4932930;29;7510;-61
2022/10/13 04:42:14;;;;;;;;;;;;;;;22.82;46.88;94732.94;4931748;29;9240;-60
2022/10/13 04:44:39;;;;;;;;;;;;;;;22.83;46.98;94737.22;4915852;29;7223;-60
2022/10/13 04:47:09;;;;;;;;;;;;;;;22.83;46.66;94727.00;4916865;29;6961;-61
2022/10/13 04:49:38;;;;;;;;;;;;;;;22.82;46.35;94730.97;4917170;29;7018;-60
2022/10/13 04:52:04;;;;;;;;;;;;;;;22.83;46.50;94723.50;4917147;29;7315;-61
2022/10/13 04:54:30;;;;;;;;;;;;;;;22.82;46.89;94711.78;4987211;28;7211;-60
2022/10/13 04:56:58;;;;;;;;;;;;;;;22.82;46.98;94720.00;4991010;28;7124;-60
2022/10/13 04:59:24;;;;;;;;;;;;;;;22.82;46.77;94706.28;4996802;28;9739;-60
2022/10/13 05:01:52;;;;;;;;;;;;;;;22.82;47.03;94703.53;5071261;28;6915;-60
2022/10/13 05:04:24;;;;;;;;;;;;;;;22.81;46.72;94713.03;5080482;28;7363;-61
2022/10/13 05:06:52;;;;;;;;;;;;;;;22.81;46.93;94718.50;5092150;28;7642;-61
2022/10/13 05:09:44;;;;;;;;;;;;;;;22.80;46.63;94721.72;5070719;28;7397;-60
2022/10/13 05:12:25;;;;;;;;;;;;;;;22.78;46.98;94718.69;5013641;28;7051;-60
2022/10/13 05:14:53;;;;;;;;;;;;;;;22.78;46.94;94721.44;5021330;28;9313;-61
2022/10/13 05:17:18;;;;;;;;;;;;;;;22.80;47.18;94718.97;5002838;28;7234;-61
2022/10/13 05:20:16;;;;;;;;;;;;;;;22.78;46.57;94716.72;5027712;28;7152;-60
2022/10/13 05:23:18;;;;;;;;;;;;;;;22.76;47.01;94718.44;4993336;28;9135;-61
2022/10/13 05:25:59;;;;;;;;;;;;;;;22.77;46.49;94719.94;4943921;28;6992;-60
2022/10/13 05:28:25;;;;;;;;;;;;;;;22.76;47.08;94716.44;4933370;29;7289;-60
2022/10/13 05:31:20;;;;;;;;;;;;;;;22.78;47.03;94722.19;4946800;29;9078;-61
2022/10/13 05:33:50;;;;;;;;;;;;;;;22.76;46.99;94721.19;4933127;29;7240;-61
2022/10/13 05:36:46;;;;;;;;;;;;;;;22.76;46.88;94719.19;4950860;29;7020;-61
2022/10/13 05:39:18;;;;;;;;;;;;;;;22.73;47.07;94711.94;4911980;29;9187;-60
2022/10/13 05:41:46;;;;;;;;;;;;;;;22.75;46.58;94714.94;4900529;29;7243;-60
2022/10/13 05:44:23;;;;;;;;;;;;;;;22.76;46.89;94715.69;4891996;29;9039;-60
2022/10/13 05:46:51;;;;;;;;;;;;;;;22.74;47.06;94705.22;4893146;29;9724;-60
2022/10/13 05:49:17;;;;;;;;;;;;;;;22.73;46.69;94706.44;4906901;29;7476;-61
2022/10/13 05:51:56;;;;;;;;;;;;;;;22.73;46.83;94711.19;4907031;29;9399;-61
2022/10/13 05:54:42;;;;;;;;;;;;;;;22.75;46.48;94722.44;4887424;29;10087;-60
2022/10/13 05:57:22;;;;;;;;;;;;;;;22.74;47.22;94718.94;4897746;29;7386;-60
2022/10/13 05:59:56;;;;;;;;;;;;;;;22.71;46.84;94710.91;4940120;28;7413;-61
2022/10/13 06:02:27;;;;;;;;;;;;;;;22.71;47.19;94711.66;4989857;28;7248;-60
2022/10/13 06:04:56;;;;;;;;;;;;;;;22.69;46.77;94714.13;4973440;28;9792;-60
2022/10/13 06:07:23;;;;;;;;;;;;;;;22.70;46.96;94715.66;4971970;28;7459;-60
2022/10/13 06:10:00;;;;;;;;;;;;;;;22.72;46.78;94726.13;4987935;28;7244;-60
2022/10/13 06:12:33;;;;;;;;;;;;;;;22.72;47.07;94718.66;4972491;28;8768;-61
2022/10/13 06:14:58;;;;;;;;;;;;;;;22.74;46.81;94709.94;4997648;28;9505;-61
2022/10/13 06:17:35;;;;;;;;;;;;;;;22.72;46.95;94717.91;5068753;28;7278;-60
2022/10/13 06:20:16;;;;;;;;;;;;;;;22.72;46.71;94720.66;5057201;28;7003;-60
2022/10/13 06:23:01;;;;;;;;;;;;;;;22.72;46.85;94713.19;5090793;28;6998;-60
2022/10/13 06:25:35;;;;;;;;;;;;;;;22.73;46.69;94711.19;5074893;28;7329;-60
2022/10/13 06:28:01;;;;;;;;;;;;;;;22.73;46.75;94708.44;5086853;28;9205;-60
2022/10/13 06:30:27;;;;;;;;;;;;;;;22.73;46.97;94711.94;5083630;28;7241;-61
2022/10/13 06:32:58;;;;;;;;;;;;;;;22.72;46.84;94707.69;5070671;28;8397;-60
2022/10/13 06:35:33;;;;;;;;;;;;;;;22.74;46.81;94705.22;5072447;28;8849;-60
2022/10/13 06:38:08;;;;;;;;;;;;;;;22.72;46.92;94707.69;5093704;28;7566;-61
2022/10/13 06:40:47;;;;;;;;;;;;;;;22.73;47.09;94702.97;5077481;28;8898;-61
2022/10/13 06:43:32;;;;;;;;;;;;;;;22.72;46.93;94710.44;5058851;28;9715;-61
2022/10/13 06:46:12;;;;;;;;;;;;;;;22.74;46.72;94718.16;5090474;28;7981;-61
2022/10/13 06:48:38;;;;;;;;;;;;;;;22.73;46.69;94725.63;5073409;28;6990;-60
2022/10/13 06:51:07;;;;;;;;;;;;;;;22.73;46.68;94731.13;5095631;28;8726;-60
2022/10/13 06:53:43;;;;;;;;;;;;;;;22.75;47.08;94720.41;5077117;28;9340;-61
2022/10/13 06:56:13;;;;;;;;;;;;;;;22.74;46.89;94718.94;5076629;28;7797;-60
2022/10/13 06:58:41;;;;;;;;;;;;;;;22.73;46.96;94714.66;5094357;28;7232;-60
2022/10/13 07:01:07;;;;;;;;;;;;;;;22.75;46.58;94711.47;5074296;28;7155;-60
2022/10/13 07:03:36;;;;;;;;;;;;;;;22.76;46.70;94710.97;5067252;28;7131;-61
2022/10/13 07:06:04;;;;;;;;;;;;;;;22.78;46.99;94702.25;5076799;28;9170;-61
2022/10/13 07:08:31;;;;;;;;;;;;;;;22.81;46.36;94698.56;5084982;28;7231;-60
2022/10/13 07:11:09;;;;;;;;;;;;;;;22.80;46.24;94694.28;5077456;28;8753;-60
2022/10/13 07:13:36;;;;;;;;;;;;;;;22.81;46.85;94695.81;5072300;28;7209;-60
2022/10/13 07:16:10;;;;;;;;;;;;;;;22.80;46.40;94689.56;5067055;28;8470;-60
2022/10/13 07:18:39;;;;;;;;;;;;;;;22.80;46.70;94697.78;5074488;28;7548;-61
2022/10/13 07:21:05;;;;;;;;;;;;;;;22.82;46.45;94697.28;5074847;28;6993;-60
2022/10/13 07:23:33;;;;;;;;;;;;;;;22.80;46.33;94695.06;5073021;28;9423;-60
2022/10/13 07:26:05;;;;;;;;;;;;;;;22.81;47.01;94695.81;5070092;28;7328;-60
2022/10/13 07:29:08;;;;;;;;;;;;;;;22.80;46.51;94684.06;5061907;28;7345;-61
2022/10/13 07:31:36;;;;;;;;;;;;;;;22.79;46.86;94682.59;5011127;28;7358;-61
2022/10/13 07:34:13;;;;;;;;;;;;;;;22.79;46.62;94668.88;5011465;28;7053;-60
2022/10/13 07:37:10;;;;;;;;;;;;;;;22.79;46.39;94674.38;5012366;28;7990;-61
2022/10/13 07:39:45;;;;;;;;;;;;;;;22.80;46.83;94670.38;4946044;28;7291;-60
2022/10/13 07:42:11;;;;;;;;;;;;;;;22.79;46.61;94668.88;4953034;28;9031;-60
2022/10/13 07:44:42;;;;;;;;;;;;;;;22.80;46.70;94680.56;4952665;28;7140;-60
2022/10/13 07:47:17;;;;;;;;;;;;;;;22.79;46.67;94679.84;4937126;28;7241;-60
2022/10/13 07:49:54;;;;;;;;;;;;;;;22.78;46.56;94677.56;4953396;28;7195;-60
2022/10/13 07:52:21;;;;;;;;;;;;;;;22.76;46.80;94672.59;4960191;28;9291;-60
2022/10/13 07:54:48;;;;;;;;;;;;;;;22.77;46.66;94673.34;4953591;28;7013;-61
2022/10/13 07:57:17;;;;;;;;;;;;;;;22.77;46.94;94678.81;4952977;28;7049;-60
2022/10/13 07:59:43;;;;;;;;;;;;;;;22.74;46.63;94677.78;4956506;28;6991;-60
2022/10/13 08:02:09;;;;;;;;;;;;;;;22.75;46.84;94679.28;4949974;28;7586;-60
2022/10/13 08:04:35;;;;;;;;;;;;;;;22.75;47.13;94678.56;4950450;28;9140;-61
2022/10/13 08:07:05;;;;;;;;;;;;;;;22.74;47.40;94677.78;4973232;28;7240;-61
2022/10/13 08:09:31;;;;;;;;;;;;;;;22.75;46.93;94678.56;5008462;28;9366;-61
2022/10/13 08:11:57;;;;;;;;;;;;;;;22.77;47.12;94665.84;5007904;28;7751;-61
2022/10/13 08:14:31;;;;;;;;;;;;;;;22.78;46.60;94675.59;4991028;28;7191;-60
2022/10/13 08:17:05;;;;;;;;;;;;;;;22.83;46.91;94672.16;5065460;28;7216;-60
2022/10/13 08:19:31;;;;;;;;;;;;;;;22.84;46.71;94664.66;5066108;28;9399;-61
2022/10/13 08:22:09;;;;;;;;;;;;;;;22.87;47.14;94669.94;5067543;28;9484;-61
2022/10/13 08:24:35;;;;;;;;;;;;;;;22.87;46.70;94674.66;5075095;28;8506;-61
2022/10/13 08:27:02;;;;;;;;;;;;;;;22.87;47.22;94669.19;5075505;28;7358;-61
2022/10/13 08:29:28;;;;;;;;;;;;;;;22.88;47.04;94670.69;5075317;28;9175;-60
2022/10/13 08:32:00;;;;;;;;;;;;;;;22.86;46.76;94660.19;5078371;28;8936;-61
2022/10/13 08:34:38;;;;;;;;;;;;;;;22.88;47.20;94659.72;5079078;28;7026;-60
2022/10/13 08:37:04;;;;;;;;;;;;;;;22.87;46.32;94658.97;5093014;28;7230;-60
2022/10/13 08:39:43;;;;;;;;;;;;;;;22.89;46.88;94661.97;5071356;28;6996;-60
2022/10/13 08:42:19;;;;;;;;;;;;;;;22.89;46.72;94661.97;5057424;28;7838;-60
2022/10/13 08:45:01;;;;;;;;;;;;;;;22.91;46.72;94658.72;5066527;28;7216;-60
2022/10/13 08:47:56;;;;;;;;;;;;;;;22.91;46.81;94656.00;5086387;28;9053;-60
2022/10/13 08:50:39;;;;;;;;;;;;;;;22.89;46.72;94656.50;5087293;28;7383;-60
2022/10/13 08:53:19;;;;;;;;;;;;;;;22.88;47.26;94648.75;5091124;28;7763;-60
2022/10/13 08:55:58;;;;;;;;;;;;;;;22.86;46.97;94651.97;5081539;28;7724;-60
2022/10/13 08:58:39;;;;;;;;;;;;;;;22.86;47.04;94662.94;5074413;28;9067;-60
2022/10/13 09:01:08;;;;;;;;;;;;;;;22.86;47.00;94668.41;5091901;28;7298;-60
2022/10/13 09:03:54;;;;;;;;;;;;;;;22.86;47.31;94665.69;5072617;28;7368;-60
2022/10/13 09:06:28;;;;;;;;;;;;;;;22.85;47.44;94666.94;5084425;28;7385;-60
2022/10/13 09:08:57;;;;;;;;;;;;;;;22.85;47.39;94672.41;5073323;28;7220;-60
2022/10/13 09:11:32;;;;;;;;;;;;;;;22.86;47.48;94670.44;5090331;28;9073;-60
2022/10/13 09:14:01;;;;;;;;;;;;;;;22.85;47.14;94663.44;5070586;28;7270;-60
2022/10/13 09:16:39;;;;;;;;;;;;;;;22.87;47.65;94674.66;5068173;28;7198;-59
2022/10/13 09:19:13;;;;;;;;;;;;;;;22.87;47.21;94674.66;5069156;28;7290;-60
2022/10/13 09:21:40;;;;;;;;;;;;;;;22.86;46.84;94668.41;5084928;28;7012;-59
2022/10/13 09:24:12;;;;;;;;;;;;;;;22.85;47.27;94675.16;5072231;28;7232;-60
2022/10/13 09:26:39;;;;;;;;;;;;;;;22.86;46.83;94673.16;5071335;28;7362;-60
2022/10/13 09:29:25;;;;;;;;;;;;;;;22.85;47.44;94675.16;5063763;28;9329;-60
2022/10/13 09:32:06;;;;;;;;;;;;;;;22.84;47.39;94676.38;5069353;28;7402;-60
2022/10/13 09:34:38;;;;;;;;;;;;;;;22.85;47.04;94669.69;5087758;28;6976;-60
2022/10/13 09:37:21;;;;;;;;;;;;;;;22.85;47.31;94666.16;5091677;28;9158;-60
2022/10/13 09:40:29;;;;;;;;;;;;;;;22.86;47.06;94673.91;5072069;28;6995;-61
2022/10/13 09:42:57;;;;;;;;;;;;;;;22.85;47.44;94677.13;4971157;28;9147;-60
2022/10/13 09:45:26;;;;;;;;;;;;;;;22.87;47.33;94680.16;4986545;28;9418;-60
2022/10/13 09:47:58;;;;;;;;;;;;;;;22.87;47.09;94680.91;4972068;28;8865;-59
2022/10/13 09:50:29;;;;;;;;;;;;;;;22.86;47.42;94678.66;4987193;28;7275;-60
2022/10/13 09:53:24;;;;;;;;;;;;;;;22.86;47.09;94684.16;4986885;28;7537;-60
2022/10/13 09:56:24;;;;;;;;;;;;;;;22.86;47.15;94687.63;4973395;28;8618;-61
2022/10/13 09:59:14;;;;;;;;;;;;;;;22.87;47.46;94691.13;4989771;28;7229;-60
2022/10/13 10:01:46;;;;;;;;;;;;;;;22.86;47.46;94679.38;4989986;28;6997;-61
2022/10/13 10:04:22;;;;;;;;;;;;;;;22.86;47.75;94684.88;4975844;28;9104;-60
2022/10/13 10:06:51;;;;;;;;;;;;;;;22.85;47.46;94688.88;4993964;28;7203;-61
2022/10/13 10:09:38;;;;;;;;;;;;;;;22.82;47.70;94692.56;4993467;28;7250;-61
2022/10/13 10:12:16;;;;;;;;;;;;;;;22.83;47.51;94694.09;4994043;28;7247;-60
2022/10/13 10:14:43;;;;;;;;;;;;;;;22.82;47.32;94689.81;5071733;28;7030;-61
2022/10/13 10:17:57;;;;;;;;;;;;;;;22.82;47.49;94689.81;5096249;28;7283;-60
2022/10/13 10:21:06;;;;;;;;;;;;;;;22.85;47.51;94688.88;5095894;28;7069;-60
2022/10/13 10:23:36;;;;;;;;;;;;;;;22.84;47.57;94698.31;5031570;28;8743;-60
2022/10/13 10:26:49;;;;;;;;;;;;;;;22.83;47.58;94702.31;5016810;28;10119;-61
2022/10/13 10:29:48;;;;;;;;;;;;;;;22.85;47.36;94699.84;4969025;28;7535;-60
2022/10/13 10:32:26;;;;;;;;;;;;;;;22.87;47.50;94694.63;4957852;28;9085;-60
2022/10/13 10:35:10;;;;;;;;;;;;;;;22.84;47.04;94683.84;4964386;28;9496;-60
2022/10/13 10:38:24;;;;;;;;;;;;;;;22.85;47.59;94693.59;4970790;28;8328;-61
2022/10/13 10:41:06;;;;;;;;;;;;;;;22.82;47.55;94681.59;4930149;29;7311;-60
2022/10/13 10:47:27;;;;;;;;;;;;;;;22.83;47.74;94674.13;4880440;29;7269;-60
2022/10/13 10:50:03;;;;;;;;;;;;;;;22.84;47.50;94676.38;4878790;29;9389;-61
2022/10/13 10:53:00;;;;;;;;;;;;;;;22.83;47.61;94669.41;4880972;29;6990;-60
2022/10/13 10:55:54;;;;;;;;;;;;;;;22.82;47.37;94672.63;4876210;29;9493;-60
2022/10/13 10:58:43;;;;;;;;;;;;;;;22.87;47.67;94661.72;5110147;27;7181;-60
2022/10/13 11:02:05;;;;;;;;;;;;;;;22.91;47.56;94653.25;5071141;28;8476;-61
2022/10/13 11:04:39;;;;;;;;;;;;;;;22.89;47.28;94655.72;5004091;28;7316;-60
2022/10/13 11:07:23;;;;;;;;;;;;;;;22.84;47.67;94643.47;4985814;28;7020;-61
2022/10/13 11:09:56;;;;;;;;;;;;;;;22.87;47.42;94647.25;4986330;28;8401;-60
2022/10/13 11:12:49;;;;;;;;;;;;;;;22.88;47.65;94648.75;4983731;28;8957;-60
2022/10/13 11:15:43;;;;;;;;;;;;;;;22.90;47.25;94647.00;5003588;28;7640;-60
2022/10/13 11:18:47;;;;;;;;;;;;;;;22.91;47.31;94643.03;4987472;28;7248;-60
2022/10/13 11:21:23;;;;;;;;;;;;;;;22.90;47.26;94638.78;4980643;28;8049;-60
2022/10/13 11:24:00;;;;;;;;;;;;;;;22.92;47.75;94630.81;4987579;28;9079;-61
2022/10/13 11:26:52;;;;;;;;;;;;;;;22.92;47.27;94628.06;5003575;28;7260;-61
2022/10/13 11:29:57;;;;;;;;;;;;;;;22.96;47.56;94638.84;4983342;28;7377;-60
2022/10/13 11:35:05;;;;;;;;;;;;;;;22.97;47.43;94638.34;4987455;28;7352;-60
2022/10/13 11:38:01;;;;;;;;;;;;;;;22.94;47.41;94631.09;4989980;28;7281;-61
2022/10/13 11:41:01;;;;;;;;;;;;;;;22.94;47.41;94630.34;5066992;28;7029;-60
2022/10/13 11:43:51;;;;;;;;;;;;;;;22.97;47.45;94624.63;5084493;28;7317;-59
2022/10/13 11:46:29;;;;;;;;;;;;;;;22.97;47.32;94624.63;5083964;28;10112;-60
2022/10/13 11:49:14;;;;;;;;;;;;;;;22.98;47.56;94620.66;5073914;28;6984;-60
2022/10/13 11:52:18;;;;;;;;;;;;;;;22.98;47.47;94620.66;5100181;28;9019;-60
2022/10/13 11:55:11;;;;;;;;;;;;;;;22.96;47.41;94609.44;5078766;28;7239;-60
2022/10/13 11:57:37;;;;;;;;;;;;;;;22.96;46.92;94612.16;5102061;28;7107;-60
2022/10/13 12:00:11;;;;;;;;;;;;;;;22.96;47.54;94601.19;5076403;28;7031;-61
2022/10/13 12:02:57;;;;;;;;;;;;;;;22.96;47.51;94594.94;5094251;28;8931;-60
2022/10/13 12:05:33;;;;;;;;;;;;;;;22.97;47.66;94591.72;5060967;28;7217;-60
2022/10/13 12:08:10;;;;;;;;;;;;;;;22.98;47.65;94576.78;5059085;28;9407;-60
2022/10/13 12:10:38;;;;;;;;;;;;;;;22.99;47.48;94578.25;5059992;28;8995;-60
2022/10/13 12:13:23;;;;;;;;;;;;;;;23.01;47.61;94575.03;5053998;28;7601;-60
2022/10/13 12:16:15;;;;;;;;;;;;;;;23.00;47.70;94566.06;5075365;28;7839;-60
2022/10/13 12:18:43;;;;;;;;;;;;;;;23.03;47.45;94569.81;5073974;28;6958;-60
2022/10/13 12:21:15;;;;;;;;;;;;;;;23.07;47.96;94565.59;5065982;28;9845;-60
2022/10/13 12:23:41;;;;;;;;;;;;;;;23.09;47.57;94560.38;5066650;28;7033;-60
2022/10/13 12:26:19;;;;;;;;;;;;;;;23.08;47.50;94558.88;5079006;28;7071;-60
2022/10/13 12:28:48;;;;;;;;;;;;;;;23.11;47.49;94557.91;5081469;28;7360;-60
2022/10/13 12:31:28;;;;;;;;;;;;;;;23.14;47.81;94556.16;5079433;28;7069;-60
2022/10/13 12:33:57;;;;;;;;;;;;;;;23.16;47.66;94545.47;5072918;28;9287;-60
2022/10/13 12:36:34;;;;;;;;;;;;;;;23.19;47.80;94550.69;5056785;28;9148;-60
2022/10/13 12:39:05;;;;;;;;;;;;;;;23.16;47.50;94550.94;5068363;28;9298;-60
2022/10/13 12:41:43;;;;;;;;;;;;;;;23.12;47.94;94548.41;5052566;28;9456;-60
2022/10/13 12:44:19;;;;;;;;;;;;;;;23.15;47.51;94541.94;5056160;28;9046;-60
2022/10/13 12:46:57;;;;;;;;;;;;;;;23.17;47.71;94536.72;5075909;28;7347;-60
2022/10/13 12:49:34;;;;;;;;;;;;;;;23.18;47.79;94532.72;5063795;28;7461;-60
2022/10/13 12:52:13;;;;;;;;;;;;;;;23.22;47.66;94536.00;5078448;28;7059;-60
2022/10/13 12:54:51;;;;;;;;;;;;;;;23.23;47.55;94537.50;5072032;28;8651;-60
2022/10/13 12:57:34;;;;;;;;;;;;;;;23.25;47.43;94526.78;5070001;28;7211;-60
2022/10/13 13:00:01;;;;;;;;;;;;;;;23.22;47.52;94533.25;5045125;28;7542;-60
2022/10/13 13:02:31;;;;;;;;;;;;;;;23.21;47.71;94520.78;5046094;28;9357;-60
2022/10/13 13:05:42;;;;;;;;;;;;;;;23.21;47.83;94522.75;5072483;28;8155;-60
2022/10/13 13:08:30;;;;;;;;;;;;;;;23.19;47.90;94525.25;5055351;28;7509;-60
2022/10/13 13:11:27;;;;;;;;;;;;;;;23.21;47.81;94518.03;5055925;28;9285;-60
2022/10/13 13:14:24;;;;;;;;;;;;;;;23.26;47.87;94513.81;5006861;28;7258;-60
2022/10/13 13:17:17;;;;;;;;;;;;;;;23.32;47.27;94516.56;4987032;28;7531;-60
2022/10/13 13:19:57;;;;;;;;;;;;;;;23.32;47.49;94519.31;4973851;28;7396;-60
2022/10/13 13:22:25;;;;;;;;;;;;;;;23.32;47.76;94519.31;4980306;28;7549;-60
2022/10/13 13:24:52;;;;;;;;;;;;;;;23.35;47.76;94526.59;5005632;28;8191;-60
2022/10/13 13:27:36;;;;;;;;;;;;;;;23.34;47.89;94525.84;4986311;28;7151;-60
2022/10/13 13:30:02;;;;;;;;;;;;;;;23.35;47.66;94519.13;4962193;28;9023;-59
2022/10/13 13:32:33;;;;;;;;;;;;;;;23.36;47.87;94515.13;4987604;28;6972;-60
2022/10/13 13:35:00;;;;;;;;;;;;;;;23.38;47.61;94517.41;4988624;28;7136;-60
2022/10/13 13:37:29;;;;;;;;;;;;;;;23.38;47.73;94520.88;4978603;28;9431;-60
2022/10/13 13:39:55;;;;;;;;;;;;;;;23.37;47.68;94524.88;4991626;28;9145;-61
2022/10/13 13:42:39;;;;;;;;;;;;;;;23.36;47.98;94528.13;4970952;28;9046;-60
2022/10/13 13:45:06;;;;;;;;;;;;;;;23.36;47.68;94517.88;4982012;28;7218;-59
2022/10/13 13:47:33;;;;;;;;;;;;;;;23.37;48.00;94518.63;4993501;28;8657;-60
2022/10/13 13:50:22;;;;;;;;;;;;;;;23.36;47.91;94512.38;4998338;28;7234;-60
2022/10/13 13:53:00;;;;;;;;;;;;;;;23.40;47.59;94512.16;5072457;28;7040;-60
2022/10/13 13:55:49;;;;;;;;;;;;;;;23.43;47.30;94508.41;5075632;28;7012;-60